Lefor, North Dakota
Current Conditions -  °F | °C
As of 11:56 AM on Friday 24 Oct 2014 (Local Time) from KDIK Reporting Station
Clear Clear  
Wind Chill: 64°   Ceiling: Unl
Heat Index: 64°   Visibility: 10mi
Dew Point: 37°   Wind: 20mph
Humidity: 37%   Direction: 300°WNW
Pressure: 29.96"   Gusts: 24mph
Location:  46.69°N, 102.56°W
Report Text: KDIK 241756Z AUTO 30017G21KT 10SM CLR 18/03 A2996 RMK AO2 SLP143 T01780028 10178 20033 51014
Loading
Personal Weather Stations






























Interactive Weather Map
Tropical Storm Tracking
New forecast layout! Learn more

10-Day Weather Forecast

Advertisements
Track Severe Weather on mobile